Latest Weather Observations for Samuel Hill

IDQ60801

Issued at 2:35 pm EST Monday 24 November 2014 (issued every 30 minutes, with the page automatically refreshed every 10 minutes)

About weather observations | Map of weather stations | Latest weather observations for QLD | Other Formats
Station Details ID: 033308 Name: SAMUEL HILL AERO Lat: -22.74 Lon: 150.66 Height: 31.0 m
Data from the previous 72 hours. | See also: Recent months at Samuel Hill
Date/Time
EST
Temp
°C
App
Temp
°C
Dew
Point
Rel
Hum
%
Delta-T
°C
Wind Press
QNH
hPa
Press
MSL
hPa
Rain
since 9 am
mm
Dir
 
Spd
km/h
Gust
km/h
Spd
kts
Gust
kts
24/02:30pm 29.2 28.7 17.7 50 7.3 E 17 24 9 13 1013.4 1013.2 0.0
24/02:00pm 29.4 29.1 18.2 51 7.2 ENE 17 28 9 15 1013.7 1013.5 0.0
24/01:30pm 31.1 30.9 18.5 47 8.1 NE 17 28 9 15 1013.9 1013.7 0.0
24/01:00pm 30.3 28.7 17.4 46 8.2 ENE 22 30 12 16 1014.2 1014.0 0.0
24/12:30pm 30.6 30.2 18.0 47 8.1 NNE 17 24 9 13 1014.6 1014.4 0.0
24/12:00pm 30.8 29.8 17.5 45 8.5 ENE 19 28 10 15 1014.9 1014.7 0.0
24/11:30am 29.3 28.8 17.8 50 7.3 ENE 17 30 9 16 1015.4 1015.2 0.0
24/11:00am 30.2 28.9 17.3 46 8.2 E 20 32 11 17 1015.7 1015.5 0.0
24/10:30am 29.7 29.2 17.8 48 7.6 NE 17 26 9 14 1015.9 1015.8 0.0
24/10:00am 28.0 27.5 17.8 54 6.5 NE 17 24 9 13 1016.5 1016.4 0.0
24/09:30am 29.7 29.4 19.1 53 6.9 ENE 19 24 10 13 1016.4 1016.3 0.0
24/09:00am 28.8 28.3 19.1 55 6.3 ENE 20 32 11 17 1016.5 1016.4 0.0
24/08:30am 27.9 28.5 19.4 60 5.5 NNE 15 24 8 13 1016.5 1016.4 0.0
24/08:00am 28.7 30.1 20.4 60 5.5 NE 13 24 7 13 1016.6 1016.5 0.0
24/07:30am 25.5 28.5 21.2 77 2.8 E 7 13 4 7 1016.5 1016.4 0.0
24/07:00am 23.0 26.8 20.9 88 1.4 SSW 2 7 1 4 1016.4 1016.3 0.0
24/06:30am 20.9 24.6 19.9 94 0.6 CALM 0 0 0 0 1016.2 1016.1 0.0
24/06:00am 19.1 21.9 17.9 93 0.7 CALM 0 0 0 0 1015.9 1015.8 0.0
24/05:30am 18.2 20.6 17.0 93 0.7 CALM 0 0 0 0 1015.7 1015.5 0.0
24/05:00am 17.4 19.4 15.9 91 0.9 CALM 0 0 0 0 1015.4 1015.2 0.0
24/04:30am 18.0 20.4 16.9 93 0.7 CALM 0 0 0 0 1015.1 1014.9 0.0
24/04:00am 17.6 19.7 16.3 92 0.8 CALM 0 0 0 0 1015.0 1014.8 0.0
24/03:30am 17.8 20.1 16.8 94 0.6 CALM 0 0 0 0 1015.0 1014.8 0.0
24/03:00am 16.6 18.3 15.1 91 0.9 CALM 0 0 0 0 1014.9 1014.7 0.0
24/02:30am 16.6 18.2 15.0 90 0.9 CALM 0 0 0 0 1014.9 1014.7 0.0
24/02:00am 17.1 18.9 15.6 91 0.9 CALM 0 0 0 0 1015.1 1014.9 0.0
24/01:30am 17.5 19.3 16.4 93 0.7 WSW 2 9 1 5 1015.2 1015.0 0.0
24/01:00am 16.8 18.5 15.3 91 0.9 CALM 0 0 0 0 1015.3 1015.1 0.0
24/12:30am 17.0 18.7 15.3 90 1.0 CALM 0 0 0 0 1015.5 1015.3 0.0
24/12:00am 17.4 19.4 15.9 91 0.9 CALM 0 0 0 0 1016.0 1015.9 0.0
 
Date/Time
EST
Temp
°C
App
Temp
°C
Dew
Point
Rel
Hum
%
Delta-T
°C
Wind Press
QNH
hPa
Press
MSL
hPa
Rain
since 9 am
mm
Dir
 
Spd
km/h
Gust
km/h
Spd
kts
Gust
kts
23/11:30pm 17.8 19.9 16.3 91 0.9 CALM 0 0 0 0 1016.2 1016.1 0.0
23/11:00pm 17.8 19.8 16.0 89 1.1 CALM 0 0 0 0 1016.4 1016.3 0.0
23/10:30pm 17.7 19.7 15.9 89 1.1 CALM 0 0 0 0 1016.6 1016.5 0.0
23/10:00pm 18.0 20.0 16.0 88 1.2 CALM 0 0 0 0 1016.5 1016.4 0.0
23/09:30pm 18.4 20.4 16.0 86 1.4 CALM 0 0 0 0 1016.2 1016.1 0.0
23/09:00pm 19.2 21.5 16.8 86 1.4 CALM 0 0 0 0 1016.0 1015.9 0.0
23/08:30pm 19.3 21.4 16.3 83 1.8 CALM 0 0 0 0 1015.7 1015.5 0.0
23/08:00pm 20.1 22.2 16.3 79 2.3 CALM 0 0 0 0 1015.4 1015.2 0.0
23/07:30pm 21.6 24.1 17.2 76 2.7 CALM 0 0 0 0 1015.3 1015.1 0.0
23/07:00pm 23.0 24.8 17.5 71 3.4 ENE 4 9 2 5 1014.8 1014.6 0.0
23/06:30pm 24.5 26.6 18.2 68 4.0 ENE 4 9 2 5 1014.6 1014.4 0.0
23/06:00pm 25.8 26.2 18.2 63 4.8 ENE 13 22 7 12 1014.4 1014.2 0.0
23/05:30pm 26.9 26.8 17.9 57 5.7 E 15 24 8 13 1014.1 1013.9 0.0
23/05:00pm 27.6 27.3 18.3 57 5.9 ENE 17 24 9 13 1014.1 1013.9 0.0
23/04:30pm 28.4 27.9 17.9 53 6.7 ENE 17 26 9 14 1014.0 1013.8 0.0
23/04:00pm 28.6 27.8 17.2 50 7.2 ENE 17 24 9 13 1014.0 1013.8 0.0
23/03:30pm 29.9 29.2 17.4 47 7.9 ENE 17 28 9 15 1014.0 1013.8 0.0
23/03:00pm 30.0 29.9 17.8 48 7.8 E 15 24 8 13 1014.0 1013.8 0.0
23/02:30pm 29.8 29.3 17.9 48 7.6 E 17 30 9 16 1014.3 1014.1 0.0
23/02:00pm 30.1 29.6 17.9 48 7.8 NE 17 22 9 12 1014.6 1014.4 0.0
23/01:30pm 30.9 31.3 18.9 48 7.8 ENE 15 24 8 13 1014.8 1014.6 0.0
23/01:00pm 30.8 31.7 19.2 50 7.6 ENE 13 28 7 15 1015.2 1015.0 0.0
23/12:30pm 31.1 31.2 19.1 48 7.8 E 17 26 9 14 1015.5 1015.3 0.0
23/12:00pm 30.7 30.6 18.8 49 7.7 ENE 17 26 9 14 1015.8 1015.7 0.0
23/11:30am 30.2 30.3 18.3 49 7.7 NE 15 26 8 14 1016.3 1016.2 0.0
23/11:00am 30.1 29.6 19.2 52 7.1 E 20 32 11 17 1016.5 1016.4 0.0
23/10:30am 29.3 28.8 18.7 52 6.8 ENE 19 26 10 14 1016.8 1016.7 0.0
23/10:00am 29.9 30.3 19.0 52 7.1 E 15 24 8 13 1016.9 1016.8 0.0
23/09:30am 28.1 28.8 18.8 57 6.0 E 13 19 7 10 1016.9 1016.8 0.0
23/09:00am 28.4 29.5 18.8 56 6.2 NNE 11 17 6 9 1016.9 1016.8 0.0
23/08:30am 29.2 30.6 19.5 56 6.3 ENE 11 19 6 10 1016.8 1016.7 0.0
23/08:00am 27.7 29.3 19.2 60 5.5 N 9 13 5 7 1016.8 1016.7 0.0
23/07:30am 26.8 29.3 19.9 66 4.5 ENE 6 13 3 7 1016.8 1016.7 0.0
23/07:00am 25.0 28.9 20.3 75 3.1 CALM 0 7 0 4 1016.6 1016.5 0.0
23/06:30am 23.4 27.4 20.5 84 1.9 CALM 0 0 0 0 1016.3 1016.2 0.0
23/06:00am 20.9 24.4 19.6 92 0.8 CALM 0 0 0 0 1015.8 1015.7 0.0
23/05:30am 17.9 20.2 16.8 93 0.7 CALM 0 0 0 0 1015.5 1015.3 0.0
23/05:00am 17.7 19.8 16.2 91 0.9 CALM 0 0 0 0 1015.1 1014.9 0.0
23/04:43am 17.8 19.9 16.3 91 0.9 CALM 0 0 0 0 1014.9 1014.7 0.0
23/04:30am 18.0 20.2 16.5 91 0.9 CALM 0 0 0 0 1014.9 1014.7 0.0
23/04:23am 18.4 20.8 17.1 92 0.8 CALM 0 0 0 0 1014.9 1014.7 0.0
23/04:00am 18.3 20.6 16.8 91 0.9 CALM 0 0 0 0 1014.7 1014.5 0.0
23/03:30am 19.3 22.2 18.3 94 0.6 CALM 0 6 0 3 1014.7 1014.5 0.0
23/03:00am 18.7 20.0 17.2 91 0.9 SSE 6 7 3 4 1014.8 1014.6 0.0
23/02:30am 19.2 21.6 17.9 92 0.8 SW 2 7 1 4 1014.7 1014.5 0.0
23/02:00am 19.8 22.9 18.6 93 0.7 CALM 0 9 0 5 1014.6 1014.4 0.0
23/01:30am 19.0 21.5 17.3 90 1.0 CALM 0 0 0 0 1014.4 1014.2 0.0
23/01:05am 19.5 22.2 17.8 90 1.0 CALM 0 0 0 0 1014.7 1014.5 0.0
23/01:00am 19.7 22.5 18.0 90 1.0 CALM 0 0 0 0 1014.7 1014.5 0.0
23/12:46am 19.8 22.7 18.1 90 1.1 CALM 0 0 0 0 1014.9 1014.7 0.0
23/12:30am 20.4 23.4 18.5 89 1.2 CALM 0 0 0 0 1015.2 1015.0 0.0
23/12:00am 21.1 24.6 19.6 91 1.0 CALM 0 0 0 0 1015.4 1015.2 0.0
 
Date/Time
EST
Temp
°C
App
Temp
°C
Dew
Point
Rel
Hum
%
Delta-T
°C
Wind Press
QNH
hPa
Press
MSL
hPa
Rain
since 9 am
mm
Dir
 
Spd
km/h
Gust
km/h
Spd
kts
Gust
kts
22/11:30pm 21.1 24.5 19.4 90 1.1 CALM 0 0 0 0 1015.3 1015.1 0.0
22/11:00pm 21.0 23.8 18.9 88 1.3 NNE 2 7 1 4 1015.5 1015.3 0.0
22/10:30pm 21.7 25.4 20.0 90 1.1 CALM 0 0 0 0 1015.5 1015.3 0.0
22/10:00pm 21.5 25.0 19.6 89 1.2 CALM 0 0 0 0 1015.6 1015.4 0.0
22/09:30pm 21.8 25.3 19.5 87 1.5 CALM 0 0 0 0 1015.5 1015.3 0.0
22/09:00pm 22.4 25.7 19.9 86 1.6 N 2 6 1 3 1015.3 1015.1 0.0
22/08:30pm 22.5 25.9 19.3 82 2.0 CALM 0 0 0 0 1015.0 1014.8 0.0
22/08:00pm 23.7 27.6 20.4 82 2.1 CALM 0 2 0 1 1014.8 1014.6 0.0
22/07:30pm 24.6 27.6 20.9 80 2.4 NNE 6 7 3 4 1014.4 1014.2 0.0
22/07:00pm 25.1 28.0 21.0 78 2.7 NNE 7 13 4 7 1014.0 1013.8 0.0
22/06:30pm 25.7 27.9 21.1 76 3.0 NE 11 17 6 9 1013.8 1013.6 0.0
22/06:00pm 26.7 28.4 21.0 71 3.8 NNE 13 19 7 10 1013.2 1013.0 0.0
22/05:30pm 27.6 28.9 20.9 67 4.4 NNE 15 20 8 11 1012.8 1012.6 0.0
22/05:00pm 28.6 29.5 20.9 63 5.1 N 17 28 9 15 1012.5 1012.3 0.0
22/04:30pm 29.7 30.6 20.8 58 5.9 N 17 28 9 15 1012.2 1012.0 0.0
22/04:00pm 30.2 31.2 21.0 58 6.1 NNE 17 28 9 15 1012.0 1011.8 0.0
22/03:30pm 30.5 31.0 20.1 53 6.9 NNE 17 28 9 15 1012.0 1011.8 0.0
22/03:00pm 31.3 31.6 20.3 52 7.3 N 19 28 10 15 1012.2 1012.0 0.0
22/02:30pm 31.8 32.8 21.0 52 7.2 N 17 26 9 14 1012.4 1012.2 0.0
22/02:00pm 30.6 31.9 20.8 56 6.5 N 15 22 8 12 1012.9 1012.7 0.0
22/01:30pm 32.0 33.1 21.2 52 7.3 N 17 26 9 14 1013.2 1013.0 0.0
22/01:00pm 30.7 31.7 20.3 53 6.9 N 15 20 8 11 1013.5 1013.3 0.0
22/12:30pm 30.9 31.8 20.8 55 6.7 N 17 32 9 17 1013.9 1013.7 0.0
22/12:00pm 30.6 30.6 20.2 53 6.9 N 20 30 11 16 1014.4 1014.2 0.0
22/11:30am 31.7 31.7 20.9 52 7.2 N 22 30 12 16 1014.7 1014.5 0.0
22/11:00am 31.3 32.2 19.3 49 7.8 NNW 13 24 7 13 1014.9 1014.7 0.0
22/10:30am 30.3 31.6 19.3 51 7.2 N 11 20 6 11 1015.3 1015.1 0.0
22/10:00am 30.9 32.5 21.4 57 6.4 N 15 22 8 12 1015.7 1015.5 0.0
22/09:30am 28.4 29.6 19.9 60 5.6 N 13 19 7 10 1015.9 1015.8 0.0
22/09:00am 28.2 30.7 20.2 62 5.2 NNW 7 13 4 7 1016.0 1015.9 0.0
22/08:30am 28.5 31.0 21.0 64 5.0 N 9 13 5 7 1016.1 1016.0 0.0
22/08:00am 26.4 28.7 21.4 74 3.3 N 11 15 6 8 1016.3 1016.2 0.0
22/07:30am 27.3 31.1 21.6 71 3.8 NW 4 11 2 6 1016.3 1016.2 0.0
22/07:00am 25.9 30.4 21.6 77 2.9 CALM 0 6 0 3 1016.1 1016.0 0.0
22/06:30am 23.9 27.8 21.2 85 1.8 SSE 2 7 1 4 1015.6 1015.4 0.0
22/06:00am 21.5 25.4 20.3 93 0.8 CALM 0 0 0 0 1015.1 1014.9 0.0
22/05:30am 19.1 21.8 17.8 92 0.8 CALM 0 0 0 0 1014.5 1014.3 0.0
22/05:00am 18.8 21.3 17.3 91 0.9 CALM 0 0 0 0 1014.1 1013.9 0.0
22/04:49am 18.9 21.5 17.4 91 0.9 CALM 0 0 0 0 1013.9 1013.7 0.0
22/04:30am 19.0 21.6 17.5 91 0.9 CALM 0 0 0 0 1013.8 1013.6 0.0
22/04:00am 19.9 23.0 18.7 93 0.7 CALM 0 0 0 0 1013.4 1013.2 0.0
22/03:30am 19.4 22.1 17.7 90 1.0 CALM 0 0 0 0 1013.1 1012.9 0.0
22/03:13am 19.7 22.5 18.0 90 1.0 CALM 0 0 0 0 1013.0 1012.8 0.0
22/03:00am 19.8 22.7 18.3 91 0.9 CALM 0 0 0 0 1013.1 1012.9 0.0
22/02:55am 20.2 23.4 18.9 92 0.8 CALM 0 0 0 0 1013.1 1012.9 0.0
22/02:30am 20.5 23.8 19.2 92 0.8 CALM 0 0 0 0 1013.3 1013.1 0.0
22/02:00am 20.4 23.4 18.5 89 1.2 CALM 0 0 0 0 1013.2 1013.0 0.0
22/01:30am 20.9 24.2 19.0 89 1.2 CALM 0 0 0 0 1013.5 1013.3 0.0
22/01:00am 21.5 23.7 19.1 86 1.5 N 6 7 3 4 1013.8 1013.6 0.0
22/12:30am 23.0 26.4 20.9 88 1.4 NNW 4 6 2 3 1014.2 1014.0 0.0
22/12:00am 23.3 26.4 21.0 87 1.5 N 6 7 3 4 1014.4 1014.2 0.0
 
Date/Time
EST
Temp
°C
App
Temp
°C
Dew
Point
Rel
Hum
%
Delta-T
°C
Wind Press
QNH
hPa
Press
MSL
hPa
Rain
since 9 am
mm
Dir
 
Spd
km/h
Gust
km/h
Spd
kts
Gust
kts
21/11:30pm 23.4 26.4 20.9 86 1.6 N 6 7 3 4 1014.5 1014.3 0.0
21/11:00pm 23.8 27.0 21.3 86 1.6 NNW 6 9 3 5 1014.8 1014.6 0.0
21/10:30pm 24.1 27.2 21.4 85 1.8 N 7 11 4 6 1014.8 1014.6 0.0
21/10:00pm 24.6 27.5 21.7 84 1.9 N 9 17 5 9 1014.7 1014.5 0.0
21/09:30pm 24.5 27.3 21.6 84 1.9 NNE 9 13 5 7 1014.5 1014.3 0.0
21/09:00pm 24.5 27.7 21.6 84 1.9 N 7 15 4 8 1014.4 1014.2 0.0
21/08:30pm 24.5 27.7 21.6 84 1.9 NNE 7 13 4 7 1013.9 1013.7 0.0
21/08:00pm 24.5 27.9 21.6 84 1.9 NNE 6 9 3 5 1013.8 1013.6 0.0
21/07:30pm 24.8 27.6 21.5 82 2.2 NNE 9 11 5 6 1013.7 1013.5 0.0
21/07:00pm 25.2 28.0 21.5 80 2.5 NNE 9 15 5 8 1013.4 1013.2 0.0
21/06:30pm 25.7 27.5 21.1 76 3.0 NNE 13 20 7 11 1013.2 1013.0 0.0
21/06:00pm 26.7 27.6 20.8 70 3.9 NNE 17 24 9 13 1012.8 1012.6 0.0
21/05:30pm 28.0 28.9 20.8 65 4.8 NNE 17 26 9 14 1012.3 1012.1 0.0
21/05:00pm 28.4 29.1 20.4 62 5.3 NNE 17 24 9 13 1012.1 1011.9 0.0
21/04:30pm 29.1 29.4 20.5 59 5.7 NNE 19 32 10 17 1012.0 1011.8 0.0
21/04:00pm 29.3 29.6 20.7 59 5.7 NNE 20 30 11 16 1011.8 1011.6 0.0
21/03:30pm 30.1 30.1 20.9 57 6.1 NNE 22 32 12 17 1011.8 1011.6 0.0
21/03:00pm 31.1 31.4 20.7 54 6.9 NNE 20 30 11 16 1012.0 1011.8 0.0

Other Formats:

Comma delimited format used in spreadsheet applications
http://www.bom.gov.au/fwo/IDQ60801/IDQ60801.94370.axf

JavaScript Object Notation format (JSON) in row-major order
http://www.bom.gov.au/fwo/IDQ60801/IDQ60801.94370.json